Time;durP1;ratioP1;P1;durP2;ratioP2;P2;SDS_P1;SDS_P2;PMS_P1;PMS_P2;Temp;Humidity;BMP_temperature;BMP_pressure;BME280_temperature;BME280_humidity;BME280_pressure;Samples;Min_cycle;Max_cycle;Signal;HPM_P1;HPM_P2
2021/04/05 00:02:11;;;;;;;4.83;3.80;;;2.30;80.60;;;;;;5046046;28;20669;-61
2021/04/05 00:04:37;;;;;;;6.93;3.97;;;2.30;80.80;;;;;;5044764;28;20264;-60
2021/04/05 00:07:03;;;;;;;9.60;5.20;;;2.30;80.90;;;;;;5045873;28;20227;-60
2021/04/05 00:09:29;;;;;;;7.77;4.40;;;2.30;81.00;;;;;;5048633;28;20410;-60
2021/04/05 00:11:54;;;;;;;8.40;4.70;;;2.30;80.70;;;;;;5047846;28;20452;-61
2021/04/05 00:14:20;;;;;;;5.70;4.60;;;2.30;81.00;;;;;;5049084;28;20286;-61
2021/04/05 00:16:47;;;;;;;7.57;4.33;;;2.30;80.20;;;;;;5045303;28;20171;-61
2021/04/05 00:19:12;;;;;;;9.63;4.10;;;2.30;80.30;;;;;;5047745;28;20594;-61
2021/04/05 00:21:38;;;;;;;9.93;4.50;;;2.30;80.40;;;;;;5050183;28;20906;-62
2021/04/05 00:24:04;;;;;;;13.07;4.63;;;2.30;80.60;;;;;;5043252;28;20169;-60
2021/04/05 00:26:29;;;;;;;6.70;4.30;;;2.20;81.00;;;;;;5046691;28;20273;-61
2021/04/05 00:28:55;;;;;;;9.50;4.80;;;2.20;81.10;;;;;;5048747;28;20408;-61
2021/04/05 00:31:21;;;;;;;7.10;4.37;;;2.20;81.10;;;;;;5047158;28;20206;-60
2021/04/05 00:33:47;;;;;;;7.83;4.30;;;2.10;82.00;;;;;;5043587;28;20710;-61
2021/04/05 00:36:12;;;;;;;6.30;3.87;;;2.10;82.60;;;;;;5046221;28;20221;-60
2021/04/05 00:38:38;;;;;;;15.00;4.90;;;2.00;82.60;;;;;;5046697;28;20323;-61
2021/04/05 00:41:10;;;;;;;6.43;4.30;;;2.00;82.50;;;;;;5045832;28;20204;-61
2021/04/05 00:43:37;;;;;;;4.63;3.90;;;2.00;82.60;;;;;;5052062;28;20716;-60
2021/04/05 00:46:04;;;;;;;7.23;4.90;;;2.00;83.00;;;;;;5048184;28;20779;-61
2021/04/05 00:48:31;;;;;;;10.30;4.67;;;2.00;82.80;;;;;;5051208;28;20427;-61
2021/04/05 00:51:11;;;;;;;8.77;4.70;;;1.90;83.20;;;;;;5042841;28;20439;-60
2021/04/05 00:53:42;;;;;;;7.63;4.87;;;1.90;83.50;;;;;;5043829;28;20459;-60
2021/04/05 00:56:08;;;;;;;8.23;4.90;;;1.90;84.00;;;;;;5053618;28;20420;-61
2021/04/05 00:58:35;;;;;;;8.80;4.67;;;1.80;83.90;;;;;;5048753;28;20926;-61
2021/04/05 01:01:06;;;;;;;7.83;4.23;;;1.80;84.10;;;;;;5053576;28;20478;-61
2021/04/05 01:03:34;;;;;;;9.00;4.43;;;1.80;84.00;;;;;;5049836;28;20463;-60
2021/04/05 01:06:08;;;;;;;8.23;4.87;;;1.80;84.00;;;;;;5048070;28;20786;-62
2021/04/05 01:08:33;;;;;;;10.10;4.93;;;1.70;84.20;;;;;;5049904;28;20427;-62
2021/04/05 01:10:59;;;;;;;9.13;4.97;;;1.60;85.00;;;;;;5051809;28;20459;-61
2021/04/05 01:13:25;;;;;;;6.80;4.93;;;1.60;85.90;;;;;;5051777;28;20175;-60
2021/04/05 01:15:51;;;;;;;11.30;4.70;;;1.50;86.30;;;;;;5047616;28;20268;-61
2021/04/05 01:18:17;;;;;;;6.93;4.90;;;1.60;86.70;;;;;;5048537;28;20221;-60
2021/04/05 01:20:44;;;;;;;9.33;4.50;;;1.50;86.70;;;;;;5050780;28;20226;-61
2021/04/05 01:23:09;;;;;;;7.70;4.67;;;1.60;86.60;;;;;;5051015;28;20957;-61
2021/04/05 01:25:35;;;;;;;7.40;4.40;;;1.60;86.40;;;;;;5047855;28;20509;-62
2021/04/05 01:28:01;;;;;;;6.23;4.00;;;1.50;86.80;;;;;;5051987;28;20188;-62
2021/04/05 01:30:32;;;;;;;6.53;4.10;;;1.50;86.80;;;;;;5049834;28;20564;-60
2021/04/05 01:33:06;;;;;;;6.70;4.60;;;1.50;86.90;;;;;;5043615;28;20271;-59
2021/04/05 01:35:56;;;;;;;10.13;4.80;;;1.40;87.10;;;;;;5047125;28;20473;-61
2021/04/05 01:38:25;;;;;;;6.50;4.50;;;1.40;87.20;;;;;;5048192;28;20987;-61
2021/04/05 01:40:54;;;;;;;8.93;4.43;;;1.40;87.30;;;;;;5045852;28;20450;-60
2021/04/05 01:43:20;;;;;;;10.70;4.53;;;1.40;87.00;;;;;;5045809;28;20428;-61
2021/04/05 01:45:45;;;;;;;8.00;4.40;;;1.40;87.40;;;;;;5047619;28;20418;-61
2021/04/05 01:48:15;;;;;;;12.37;6.00;;;1.30;87.80;;;;;;5047477;28;20201;-61
2021/04/05 01:50:42;;;;;;;11.47;6.10;;;1.30;88.10;;;;;;5046265;28;20446;-61
2021/04/05 01:53:09;;;;;;;10.73;7.13;;;1.20;88.80;;;;;;5047070;28;20840;-62
2021/04/05 01:55:36;;;;;;;9.50;7.00;;;1.20;89.10;;;;;;5046446;28;20417;-61
2021/04/05 01:58:05;;;;;;;9.20;5.70;;;1.20;89.10;;;;;;5048594;28;20455;-63
2021/04/05 02:00:35;;;;;;;7.73;5.27;;;1.30;89.40;;;;;;5045671;28;20443;-61
2021/04/05 02:03:08;;;;;;;10.40;5.10;;;1.30;89.80;;;;;;5045180;28;20434;-61
2021/04/05 02:05:43;;;;;;;7.50;5.57;;;1.30;90.00;;;;;;5045095;28;20439;-62
2021/04/05 02:08:09;;;;;;;8.53;5.43;;;1.30;89.30;;;;;;5042577;28;20438;-60
2021/04/05 02:10:35;;;;;;;9.47;5.57;;;1.30;88.80;;;;;;5046227;28;20478;-61
2021/04/05 02:13:02;;;;;;;10.40;5.33;;;1.30;88.60;;;;;;5047471;28;20958;-61
2021/04/05 02:15:28;;;;;;;10.43;5.30;;;1.30;87.70;;;;;;5047717;28;20903;-62
2021/04/05 02:17:54;;;;;;;6.87;5.03;;;1.20;87.70;;;;;;5067386;22;20602;-59
2021/04/05 02:20:20;;;;;;;8.47;5.13;;;1.10;88.20;;;;;;5062992;28;20172;-60
2021/04/05 02:22:52;;;;;;;8.50;5.57;;;1.10;89.10;;;;;;5061943;28;20302;-60
2021/04/05 02:25:20;;;;;;;10.10;5.10;;;1.10;90.00;;;;;;5062364;28;20416;-60
2021/04/05 02:27:48;;;;;;;12.40;5.50;;;1.10;90.00;;;;;;5057436;28;20446;-59
2021/04/05 02:30:22;;;;;;;9.73;4.80;;;1.10;89.80;;;;;;5057618;28;20414;-61
2021/04/05 02:32:55;;;;;;;9.07;5.07;;;1.00;89.80;;;;;;5053698;28;20411;-60
2021/04/05 02:35:23;;;;;;;8.30;5.00;;;1.00;90.10;;;;;;5040141;28;20447;-60
2021/04/05 02:37:50;;;;;;;15.57;5.30;;;1.00;90.30;;;;;;5046318;28;20442;-61
2021/04/05 02:40:16;;;;;;;9.53;5.57;;;1.00;90.30;;;;;;5043592;28;20772;-60
2021/04/05 02:42:42;;;;;;;8.13;5.10;;;0.90;90.30;;;;;;5063180;28;20414;-60
2021/04/05 02:45:09;;;;;;;6.53;4.63;;;0.90;90.30;;;;;;5035105;28;20439;-62
2021/04/05 02:47:36;;;;;;;13.30;5.77;;;0.90;90.50;;;;;;5048827;28;20451;-60
2021/04/05 02:50:06;;;;;;;9.33;5.50;;;0.90;90.50;;;;;;5049624;28;20521;-60
2021/04/05 02:52:37;;;;;;;6.17;4.53;;;0.90;90.40;;;;;;5076266;28;20822;-61
2021/04/05 02:55:10;;;;;;;8.60;5.40;;;0.90;90.50;;;;;;5043045;28;20424;-58
2021/04/05 02:57:38;;;;;;;15.67;5.20;;;0.80;90.70;;;;;;5050239;28;20419;-60
2021/04/05 03:00:15;;;;;;;5.97;4.40;;;0.80;90.70;;;;;;5049669;28;20443;-61
2021/04/05 03:02:43;;;;;;;7.77;4.83;;;0.80;90.80;;;;;;5043477;28;20442;-61
2021/04/05 03:05:11;;;;;;;11.50;5.20;;;0.70;90.90;;;;;;5074835;28;20459;-61
2021/04/05 03:07:37;;;;;;;9.33;5.00;;;0.70;90.90;;;;;;5045732;28;20451;-60
2021/04/05 03:10:08;;;;;;;6.10;4.33;;;0.60;91.00;;;;;;5047355;28;20434;-60
2021/04/05 03:12:39;;;;;;;9.40;4.87;;;0.60;91.20;;;;;;5048936;28;20415;-60
2021/04/05 03:15:08;;;;;;;8.97;5.30;;;0.60;91.20;;;;;;5049394;28;20436;-60
2021/04/05 03:17:35;;;;;;;6.30;4.80;;;0.60;91.40;;;;;;5049471;28;20487;-62
2021/04/05 03:20:09;;;;;;;9.07;4.67;;;0.60;91.30;;;;;;5049064;28;20428;-61
2021/04/05 03:22:36;;;;;;;7.97;4.77;;;0.60;91.40;;;;;;5051726;28;20450;-60
2021/04/05 03:25:03;;;;;;;12.30;5.53;;;0.60;91.30;;;;;;5049764;28;20506;-60
2021/04/05 03:27:28;;;;;;;6.43;4.40;;;0.60;91.40;;;;;;5038148;28;20444;-60
2021/04/05 03:29:59;;;;;;;7.17;5.00;;;0.50;91.50;;;;;;5045815;28;20458;-60
2021/04/05 03:32:25;;;;;;;14.07;5.13;;;0.50;91.90;;;;;;5036248;28;20176;-60
2021/04/05 03:34:56;;;;;;;10.83;5.20;;;0.60;91.60;;;;;;5048070;28;20971;-60
2021/04/05 03:37:23;;;;;;;9.57;5.00;;;0.60;91.60;;;;;;5047486;28;20558;-60
2021/04/05 03:39:50;;;;;;;12.20;5.67;;;0.50;91.70;;;;;;5050071;28;20455;-61
2021/04/05 03:42:22;;;;;;;11.43;5.10;;;0.50;91.80;;;;;;5048738;28;20435;-60
2021/04/05 03:45:03;;;;;;;7.23;4.83;;;0.50;91.70;;;;;;5044147;28;20428;-60
2021/04/05 03:48:19;;;;;;;12.23;4.87;;;0.60;91.60;;;;;;5041961;28;20447;-59
2021/04/05 03:51:03;;;;;;;10.53;5.07;;;0.50;91.60;;;;;;5009026;28;20468;-60
2021/04/05 03:53:34;;;;;;;5.70;4.50;;;0.60;91.50;;;;;;4994248;28;20433;-60
2021/04/05 03:56:06;;;;;;;9.33;4.77;;;0.50;91.60;;;;;;5032640;28;20508;-60
2021/04/05 03:58:33;;;;;;;7.90;5.30;;;0.50;91.80;;;;;;5050291;28;20448;-60
2021/04/05 04:01:06;;;;;;;17.73;5.60;;;0.50;91.90;;;;;;5045753;28;20830;-61
2021/04/05 04:03:47;;;;;;;10.40;4.57;;;0.50;91.80;;;;;;5050034;28;20427;-60
2021/04/05 04:06:19;;;;;;;15.03;5.00;;;0.50;91.50;;;;;;5050931;28;20435;-60
2021/04/05 04:08:47;;;;;;;12.43;6.43;;;0.50;91.50;;;;;;5046832;28;20446;-60
2021/04/05 04:11:15;;;;;;;8.80;5.07;;;0.50;91.60;;;;;;5046832;28;20436;-60
2021/04/05 04:13:47;;;;;;;15.27;6.53;;;0.50;91.40;;;;;;5050734;28;20414;-60
2021/04/05 04:16:13;;;;;;;15.73;6.20;;;0.50;91.40;;;;;;5048344;28;20454;-61
2021/04/05 04:18:40;;;;;;;11.70;5.53;;;0.50;91.40;;;;;;5051691;28;20463;-59
2021/04/05 04:21:08;;;;;;;11.37;6.30;;;0.50;91.40;;;;;;5056850;28;20423;-59
2021/04/05 04:23:36;;;;;;;10.87;6.50;;;0.50;91.40;;;;;;5093371;28;20431;-60
2021/04/05 04:26:02;;;;;;;8.80;5.30;;;0.50;91.20;;;;;;5061127;28;20423;-58
2021/04/05 04:28:28;;;;;;;8.73;5.30;;;0.40;91.10;;;;;;5048268;28;20443;-59
2021/04/05 04:30:55;;;;;;;8.63;5.17;;;0.40;91.30;;;;;;5050223;28;20414;-58
2021/04/05 04:33:24;;;;;;;8.60;5.13;;;0.40;91.40;;;;;;5049452;28;20225;-59
2021/04/05 04:35:50;;;;;;;12.23;4.97;;;0.40;91.40;;;;;;5043843;28;20968;-59
2021/04/05 04:38:16;;;;;;;5.87;4.60;;;0.30;91.40;;;;;;5047360;28;20473;-58
2021/04/05 04:40:41;;;;;;;6.93;4.80;;;0.20;91.70;;;;;;5049766;28;20691;-61
2021/04/05 04:43:07;;;;;;;7.87;5.37;;;0.20;92.10;;;;;;5050093;28;20175;-60
2021/04/05 04:45:34;;;;;;;8.57;4.80;;;0.20;92.20;;;;;;5048446;28;20637;-59
2021/04/05 04:48:00;;;;;;;10.43;4.80;;;0.20;92.40;;;;;;5046941;28;20453;-65
2021/04/05 04:50:27;;;;;;;5.63;4.63;;;0.20;92.30;;;;;;5045229;28;20430;-59
2021/04/05 04:52:53;;;;;;;16.30;5.40;;;0.20;92.30;;;;;;5048491;28;20684;-59
2021/04/05 04:55:21;;;;;;;17.50;5.13;;;0.20;92.50;;;;;;5043441;28;20453;-59
2021/04/05 04:57:47;;;;;;;11.47;5.00;;;0.20;92.50;;;;;;5049093;28;20606;-60
2021/04/05 05:00:13;;;;;;;9.53;5.07;;;0.20;92.60;;;;;;5048618;28;20450;-59
2021/04/05 05:02:43;;;;;;;7.63;4.90;;;0.20;92.50;;;;;;5038528;28;20177;-60
2021/04/05 05:05:10;;;;;;;6.90;5.50;;;0.20;92.30;;;;;;5042190;28;20430;-59
2021/04/05 05:07:38;;;;;;;15.03;5.70;;;0.20;92.50;;;;;;5046531;28;20546;-59
2021/04/05 05:10:05;;;;;;;8.20;5.17;;;0.20;92.50;;;;;;5050466;28;20426;-59
2021/04/05 05:12:31;;;;;;;9.23;5.40;;;0.20;92.60;;;;;;5042965;28;20472;-59
2021/04/05 05:14:57;;;;;;;6.67;4.87;;;0.20;92.60;;;;;;5049406;28;20403;-59
2021/04/05 05:17:24;;;;;;;10.00;6.30;;;0.20;92.60;;;;;;5070655;28;20830;-59
2021/04/05 05:19:51;;;;;;;12.10;5.20;;;0.20;92.40;;;;;;5078659;28;20496;-59
2021/04/05 05:22:19;;;;;;;9.53;4.90;;;0.30;92.30;;;;;;5051654;28;20431;-60
2021/04/05 05:24:46;;;;;;;19.90;5.90;;;0.30;92.30;;;;;;5070307;28;20480;-59
2021/04/05 05:27:13;;;;;;;7.77;5.03;;;0.30;92.40;;;;;;5069350;28;20443;-59
2021/04/05 05:29:40;;;;;;;9.83;6.60;;;0.30;92.40;;;;;;5063623;28;21295;-60
2021/04/05 05:32:08;;;;;;;15.50;5.20;;;0.30;92.50;;;;;;5051748;28;20435;-58
2021/04/05 05:34:34;;;;;;;7.57;4.83;;;0.30;92.30;;;;;;5060564;28;20536;-59
2021/04/05 05:37:00;;;;;;;16.73;5.70;;;0.40;92.50;;;;;;5059128;28;21062;-59
2021/04/05 05:39:26;;;;;;;9.37;6.07;;;0.40;92.70;;;;;;5095382;28;20577;-59
2021/04/05 05:42:10;;;;;;;11.60;6.07;;;0.50;92.70;;;;;;5070185;28;20965;-62
2021/04/05 05:45:03;;;;;;;8.30;5.67;;;0.50;92.90;;;;;;5059729;28;20188;-61
2021/04/05 05:47:53;;;;;;;9.10;5.20;;;0.60;92.50;;;;;;5067332;28;20500;-62
2021/04/05 05:50:47;;;;;;;10.13;5.77;;;0.70;92.50;;;;;;5070376;28;20431;-61
2021/04/05 05:54:04;;;;;;;15.70;5.30;;;0.80;92.30;;;;;;5066926;28;20462;-64
2021/04/05 05:56:51;;;;;;;6.07;4.73;;;0.90;91.80;;;;;;4997170;28;20455;-62
2021/04/05 05:59:49;;;;;;;5.50;4.87;;;1.00;91.90;;;;;;5068426;28;20475;-61
2021/04/05 06:02:48;;;;;;;13.73;5.67;;;1.00;91.80;;;;;;5066038;28;20433;-61
2021/04/05 06:05:25;;;;;;;8.30;5.53;;;1.00;92.30;;;;;;5066490;28;20442;-60
2021/04/05 06:08:22;;;;;;;15.63;5.93;;;1.10;92.50;;;;;;5065485;28;20515;-62
2021/04/05 06:11:04;;;;;;;7.10;5.07;;;1.20;92.50;;;;;;5062127;28;20565;-61
2021/04/05 06:13:55;;;;;;;10.30;5.63;;;1.20;92.50;;;;;;5058204;28;21376;-62
2021/04/05 06:16:31;;;;;;;7.27;5.30;;;1.20;92.40;;;;;;5046955;28;20540;-61
2021/04/05 06:18:59;;;;;;;7.17;4.80;;;1.20;91.90;;;;;;5048783;28;20505;-62
2021/04/05 06:21:40;;;;;;;8.53;5.07;;;1.20;92.30;;;;;;5050352;28;20866;-61
2021/04/05 06:24:19;;;;;;;11.27;5.77;;;1.20;92.70;;;;;;5045373;28;20515;-62
2021/04/05 06:26:59;;;;;;;11.80;6.00;;;1.20;92.60;;;;;;5053281;28;20441;-62
2021/04/05 06:29:53;;;;;;;9.50;5.93;;;1.20;92.70;;;;;;5055423;28;20446;-60
2021/04/05 06:32:26;;;;;;;7.83;6.00;;;1.30;92.80;;;;;;5057074;28;20455;-61
2021/04/05 06:35:23;;;;;;;18.80;7.37;;;1.30;92.70;;;;;;5054325;28;20450;-61
2021/04/05 06:38:18;;;;;;;13.73;7.33;;;1.30;92.60;;;;;;5000176;28;20462;-67
2021/04/05 06:40:45;;;;;;;11.70;7.10;;;1.30;92.60;;;;;;5055201;28;20454;-62
2021/04/05 06:43:45;;;;;;;13.83;6.63;;;1.40;92.90;;;;;;5058969;28;20414;-61
2021/04/05 06:46:13;;;;;;;12.93;7.70;;;1.50;93.30;;;;;;5067072;28;20978;-62
2021/04/05 06:49:03;;;;;;;13.97;6.53;;;1.70;93.10;;;;;;5081465;28;23473;-61
2021/04/05 06:52:11;;;;;;;11.33;6.07;;;1.90;93.40;;;;;;5079865;28;20961;-61
2021/04/05 06:55:04;;;;;;;11.50;6.57;;;2.20;93.30;;;;;;5057844;28;20443;-61
2021/04/05 06:58:06;;;;;;;10.53;5.90;;;2.50;92.50;;;;;;5055444;28;20780;-60
2021/04/05 07:00:41;;;;;;;12.47;6.07;;;2.80;91.80;;;;;;5050011;28;20436;-60
2021/04/05 07:03:37;;;;;;;10.30;5.03;;;3.10;90.90;;;;;;5048490;28;20485;-60
2021/04/05 07:06:16;;;;;;;12.00;5.77;;;3.50;90.00;;;;;;5053463;28;20410;-60
2021/04/05 07:08:45;;;;;;;10.00;4.70;;;3.80;88.00;;;;;;5051021;28;20414;-61
2021/04/05 07:11:22;;;;;;;7.00;5.13;;;4.20;84.30;;;;;;5042518;28;20438;-62
2021/04/05 07:14:21;;;;;;;11.60;5.13;;;4.50;81.30;;;;;;5079201;28;20476;-61
2021/04/05 07:17:13;;;;;;;7.93;5.03;;;4.80;76.00;;;;;;5045985;28;20457;-61
2021/04/05 07:20:04;;;;;;;8.83;4.13;;;5.00;73.70;;;;;;5047819;28;21040;-58
2021/04/05 07:22:54;;;;;;;7.50;5.37;;;5.20;71.30;;;;;;5046267;28;20507;-57
2021/04/05 07:25:50;;;;;;;7.73;5.13;;;5.40;69.00;;;;;;5053453;28;20429;-59
2021/04/05 07:28:28;;;;;;;10.30;5.20;;;5.70;68.10;;;;;;5053806;28;20452;-59
2021/04/05 07:30:58;;;;;;;11.43;5.13;;;5.90;65.30;;;;;;5045279;28;20450;-59
2021/04/05 07:33:37;;;;;;;6.80;4.20;;;6.10;63.00;;;;;;5044964;28;20502;-60
2021/04/05 07:36:14;;;;;;;9.27;4.67;;;6.30;60.80;;;;;;5076369;28;20429;-59
2021/04/05 07:38:49;;;;;;;11.93;5.00;;;6.50;58.80;;;;;;5051873;28;20449;-60
2021/04/05 07:41:46;;;;;;;6.43;4.20;;;6.60;57.00;;;;;;5059364;28;20924;-58
2021/04/05 07:44:29;;;;;;;12.27;5.60;;;6.80;57.40;;;;;;5052364;28;20423;-59
2021/04/05 07:47:02;;;;;;;6.67;4.40;;;6.90;56.20;;;;;;5037390;28;21616;-59
2021/04/05 07:49:31;;;;;;;11.70;4.63;;;7.00;55.50;;;;;;5073049;28;20493;-59
2021/04/05 07:52:06;;;;;;;11.03;4.43;;;7.10;54.70;;;;;;5037272;28;20433;-56
2021/04/05 07:54:38;;;;;;;12.20;4.70;;;7.20;54.90;;;;;;5053945;28;20520;-57
2021/04/05 07:57:22;;;;;;;11.93;4.07;;;7.20;54.00;;;;;;5035823;28;21434;-59
2021/04/05 08:00:06;;;;;;;9.70;4.63;;;7.30;53.70;;;;;;5039523;28;20508;-59
2021/04/05 08:03:02;;;;;;;7.30;4.50;;;7.40;53.50;;;;;;5033269;28;20544;-59
2021/04/05 08:05:56;;;;;;;9.43;4.90;;;7.50;52.80;;;;;;5029309;28;20434;-55
2021/04/05 08:08:39;;;;;;;6.90;4.63;;;7.70;53.20;;;;;;5058938;28;20453;-59
2021/04/05 08:11:27;;;;;;;7.10;4.33;;;8.00;52.40;;;;;;5064736;28;20445;-59
2021/04/05 08:14:31;;;;;;;9.97;4.30;;;8.10;52.20;;;;;;5032338;28;20438;-61
2021/04/05 08:19:54;;;;;;;8.67;4.60;;;8.30;50.70;;;;;;5052680;28;20492;-60
2021/04/05 08:22:23;;;;;;;9.87;4.50;;;8.30;50.30;;;;;;5063184;28;20520;-64
2021/04/05 08:25:04;;;;;;;8.00;4.57;;;8.30;49.80;;;;;;5062872;28;20519;-62
2021/04/05 08:27:41;;;;;;;15.97;5.60;;;8.30;49.80;;;;;;5055101;28;22325;-60
2021/04/05 08:30:12;;;;;;;8.13;4.97;;;8.30;50.10;;;;;;5037630;28;20929;-61
2021/04/05 08:32:53;;;;;;;11.23;4.73;;;8.30;50.40;;;;;;5040263;28;20869;-60
2021/04/05 08:35:40;;;;;;;10.67;5.17;;;8.30;50.20;;;;;;5042203;28;20426;-61
2021/04/05 08:38:16;;;;;;;13.03;6.63;;;8.30;50.50;;;;;;5042169;28;20484;-60
2021/04/05 08:41:04;;;;;;;12.67;5.13;;;8.30;50.70;;;;;;5043474;28;21171;-58
2021/04/05 08:43:47;;;;;;;10.93;4.50;;;8.40;50.50;;;;;;5038781;28;20441;-60
2021/04/05 08:46:16;;;;;;;10.80;5.30;;;8.40;50.60;;;;;;5042156;28;20970;-61
2021/04/05 08:48:45;;;;;;;8.97;5.37;;;8.40;50.90;;;;;;5040640;28;20472;-59
2021/04/05 08:51:18;;;;;;;8.37;5.07;;;8.50;50.70;;;;;;5037629;28;20472;-61
2021/04/05 08:53:53;;;;;;;16.10;6.07;;;8.50;50.60;;;;;;5040220;28;20465;-61
2021/04/05 08:56:20;;;;;;;18.30;5.60;;;8.60;50.70;;;;;;5041033;28;20461;-62
2021/04/05 08:58:54;;;;;;;12.07;5.80;;;8.50;50.70;;;;;;5039262;28;20981;-61
2021/04/05 09:01:31;;;;;;;8.37;5.20;;;8.60;50.50;;;;;;5041551;28;20516;-61
2021/04/05 09:03:57;;;;;;;10.83;5.60;;;8.60;50.40;;;;;;5043215;28;20448;-58
2021/04/05 09:06:33;;;;;;;18.40;5.90;;;8.60;50.70;;;;;;5039666;28;20495;-59
2021/04/05 09:09:01;;;;;;;11.53;5.83;;;8.60;51.20;;;;;;5038304;28;20457;-60
2021/04/05 09:11:29;;;;;;;10.37;5.97;;;8.70;50.70;;;;;;5041416;28;20469;-60
2021/04/05 09:13:58;;;;;;;14.03;6.30;;;8.80;50.40;;;;;;5043482;28;20461;-61
2021/04/05 09:16:24;;;;;;;13.17;5.97;;;8.80;50.70;;;;;;5047434;28;20429;-62
2021/04/05 09:19:15;;;;;;;14.63;6.60;;;8.90;50.60;;;;;;5046527;28;20531;-61
2021/04/05 09:22:18;;;;;;;19.43;6.07;;;9.00;49.70;;;;;;5048984;28;20248;-61
2021/04/05 09:24:49;;;;;;;10.20;5.33;;;9.00;50.10;;;;;;5048384;28;20421;-61
2021/04/05 09:27:52;;;;;;;12.53;5.77;;;9.00;50.00;;;;;;5045418;28;20521;-61
2021/04/05 09:30:44;;;;;;;10.33;5.40;;;9.00;49.90;;;;;;5044509;28;21122;-60
2021/04/05 09:33:43;;;;;;;14.33;6.63;;;9.10;49.50;;;;;;5044654;28;20433;-59
2021/04/05 09:36:53;;;;;;;15.40;5.90;;;9.10;49.80;;;;;;5041737;28;20462;-59
2021/04/05 09:39:48;;;;;;;10.70;5.40;;;9.00;49.70;;;;;;5032943;28;20809;-62
2021/04/05 09:42:31;;;;;;;14.30;6.27;;;9.00;50.80;;;;;;5034994;28;20430;-62
2021/04/05 09:45:09;;;;;;;13.33;5.57;;;9.10;50.50;;;;;;5043984;28;20475;-61
2021/04/05 09:47:50;;;;;;;13.07;5.40;;;9.20;50.00;;;;;;5044372;28;20458;-61
2021/04/05 09:50:38;;;;;;;19.33;7.07;;;9.30;50.00;;;;;;5042503;28;20425;-61
2021/04/05 09:53:39;;;;;;;12.33;5.97;;;9.40;49.80;;;;;;5046353;28;20452;-61
2021/04/05 09:56:11;;;;;;;6.77;5.10;;;9.60;49.80;;;;;;5047335;28;20452;-60
2021/04/05 09:58:46;;;;;;;10.00;4.50;;;10.00;49.00;;;;;;5043899;28;20457;-61
2021/04/05 10:01:31;;;;;;;10.50;5.20;;;10.30;47.80;;;;;;5044540;28;20494;-62
2021/04/05 10:04:01;;;;;;;9.23;4.70;;;10.50;47.10;;;;;;5037496;28;20418;-59
2021/04/05 10:06:32;;;;;;;10.33;5.63;;;10.80;46.20;;;;;;5044981;28;20413;-61
2021/04/05 10:08:59;;;;;;;7.93;3.77;;;11.00;45.30;;;;;;5045561;28;20868;-60
2021/04/05 10:11:33;;;;;;;8.27;4.30;;;11.20;44.20;;;;;;5044038;28;20520;-62
2021/04/05 10:14:09;;;;;;;10.03;3.80;;;11.40;43.60;;;;;;5043136;28;20413;-61
2021/04/05 10:16:37;;;;;;;12.87;4.27;;;11.50;43.10;;;;;;5046012;28;20429;-61
2021/04/05 10:19:11;;;;;;;8.30;4.60;;;11.60;42.00;;;;;;5048421;28;20837;-59
2021/04/05 10:21:42;;;;;;;13.20;4.00;;;11.70;41.60;;;;;;5042950;28;20433;-61
2021/04/05 10:24:10;;;;;;;8.63;4.30;;;11.70;40.60;;;;;;5046581;28;20423;-61
2021/04/05 10:26:38;;;;;;;7.40;3.53;;;11.80;41.20;;;;;;5056718;28;20442;-62
2021/04/05 10:29:09;;;;;;;15.67;8.10;;;11.80;41.00;;;;;;5046342;28;20940;-61
2021/04/05 10:31:37;;;;;;;9.73;4.17;;;11.80;40.70;;;;;;5040662;28;20446;-61
2021/04/05 10:34:08;;;;;;;10.93;4.57;;;11.90;40.20;;;;;;5045235;28;20437;-60
2021/04/05 10:36:58;;;;;;;6.90;4.30;;;11.90;39.30;;;;;;5048491;28;20426;-62
2021/04/05 10:39:24;;;;;;;13.33;3.90;;;11.90;39.90;;;;;;5043645;28;20469;-60
2021/04/05 10:42:04;;;;;;;7.93;4.13;;;11.90;39.40;;;;;;5050341;28;20483;-61
2021/04/05 10:44:33;;;;;;;9.83;4.60;;;11.90;39.10;;;;;;5044588;28;20433;-62
2021/04/05 10:47:05;;;;;;;14.40;4.60;;;11.90;39.60;;;;;;5032753;28;20475;-61
2021/04/05 10:49:32;;;;;;;10.73;4.47;;;11.80;38.70;;;;;;5027845;28;20457;-60
2021/04/05 10:52:14;;;;;;;11.40;4.00;;;11.80;38.80;;;;;;5044645;28;20516;-62
2021/04/05 10:54:42;;;;;;;14.93;3.97;;;11.60;38.80;;;;;;5043984;28;20454;-59
2021/04/05 10:57:16;;;;;;;11.70;4.10;;;11.60;38.90;;;;;;5047305;28;20448;-59
2021/04/05 10:59:46;;;;;;;10.00;4.03;;;11.60;39.00;;;;;;5045427;28;20467;-57
2021/04/05 11:02:19;;;;;;;11.80;4.50;;;11.60;39.00;;;;;;5037301;28;20797;-59
2021/04/05 11:04:52;;;;;;;12.37;4.77;;;11.70;38.80;;;;;;5036831;28;20480;-58
2021/04/05 11:07:21;;;;;;;14.20;4.83;;;11.80;38.90;;;;;;5042685;28;20606;-57
2021/04/05 11:09:48;;;;;;;17.37;5.53;;;11.90;38.60;;;;;;5043559;28;20433;-58
2021/04/05 11:12:18;;;;;;;9.07;4.63;;;11.90;38.30;;;;;;5039245;28;20446;-63
2021/04/05 11:14:44;;;;;;;8.40;4.53;;;11.90;38.10;;;;;;5039817;28;20957;-61
2021/04/05 11:17:13;;;;;;;11.07;5.20;;;12.10;38.30;;;;;;5034525;28;20874;-62
2021/04/05 11:19:49;;;;;;;17.67;4.47;;;12.30;37.20;;;;;;5037269;28;20462;-61
2021/04/05 11:22:21;;;;;;;10.53;4.40;;;12.50;37.30;;;;;;5036687;28;20426;-61
2021/04/05 11:24:54;;;;;;;9.10;4.90;;;12.60;36.40;;;;;;5037572;28;20914;-61
2021/04/05 11:27:25;;;;;;;14.27;4.87;;;12.50;36.10;;;;;;5036696;28;20421;-61
2021/04/05 11:29:53;;;;;;;12.60;5.73;;;12.40;36.20;;;;;;5043481;28;20426;-61
2021/04/05 11:32:21;;;;;;;15.83;4.77;;;12.60;36.00;;;;;;5037778;28;20499;-62
2021/04/05 11:34:54;;;;;;;16.97;4.80;;;12.80;35.30;;;;;;5044143;28;20436;-62
2021/04/05 11:37:20;;;;;;;6.00;3.93;;;13.10;35.50;;;;;;5039630;28;20429;-62
2021/04/05 11:39:54;;;;;;;17.50;4.13;;;13.40;34.90;;;;;;5042845;28;20454;-62
2021/04/05 11:42:21;;;;;;;8.87;4.03;;;13.70;35.60;;;;;;5040329;28;20962;-62
2021/04/05 11:44:54;;;;;;;14.60;3.87;;;14.00;31.80;;;;;;5040748;28;20446;-62
2021/04/05 11:47:21;;;;;;;10.27;3.70;;;14.00;30.90;;;;;;5043685;28;20428;-61
2021/04/05 11:49:48;;;;;;;7.07;3.83;;;14.00;31.20;;;;;;5037670;28;20536;-60
2021/04/05 11:52:19;;;;;;;6.00;3.47;;;14.10;32.20;;;;;;5040000;28;20524;-60
2021/04/05 11:55:02;;;;;;;7.50;3.50;;;14.00;30.00;;;;;;5038491;28;20430;-61
2021/04/05 11:57:31;;;;;;;7.93;3.30;;;13.90;30.00;;;;;;5039274;28;20461;-60
2021/04/05 12:00:12;;;;;;;6.23;3.20;;;13.90;30.50;;;;;;5042269;28;21000;-61
2021/04/05 12:02:49;;;;;;;11.47;3.53;;;13.70;29.60;;;;;;5037018;28;20430;-61
2021/04/05 12:05:29;;;;;;;9.13;4.00;;;13.60;29.50;;;;;;5041393;28;20428;-61
2021/04/05 12:08:20;;;;;;;10.17;3.80;;;13.40;29.60;;;;;;5034579;28;21177;-61
2021/04/05 12:10:53;;;;;;;13.13;6.67;;;13.10;30.00;;;;;;5031983;28;20441;-61
2021/04/05 12:13:34;;;;;;;6.37;3.63;;;13.00;31.20;;;;;;5041817;28;20449;-60
2021/04/05 12:16:01;;;;;;;8.23;4.17;;;13.10;32.20;;;;;;5041920;28;20429;-62
2021/04/05 12:18:29;;;;;;;6.80;3.50;;;13.20;32.20;;;;;;5038385;28;20474;-62
2021/04/05 12:21:02;;;;;;;12.53;3.60;;;13.30;33.10;;;;;;5041091;28;20878;-62
2021/04/05 12:23:28;;;;;;;8.63;3.43;;;13.50;33.40;;;;;;5035074;28;20433;-62
2021/04/05 12:25:54;;;;;;;3.97;2.67;;;13.60;33.20;;;;;;5037442;28;20438;-61
2021/04/05 12:28:20;;;;;;;4.37;2.90;;;13.50;29.80;;;;;;5043486;28;20222;-62
2021/04/05 12:30:52;;;;;;;6.23;2.63;;;13.40;29.00;;;;;;5040294;28;20485;-58
2021/04/05 12:33:25;;;;;;;3.00;2.10;;;13.20;27.70;;;;;;5040827;28;20267;-60
2021/04/05 12:35:57;;;;;;;5.40;2.30;;;13.00;28.60;;;;;;5038387;28;20876;-60
2021/04/05 12:38:39;;;;;;;5.10;2.87;;;13.00;28.50;;;;;;5037625;28;20471;-59
2021/04/05 12:41:07;;;;;;;4.93;2.43;;;13.10;28.80;;;;;;5039164;28;20434;-60
2021/04/05 12:43:36;;;;;;;4.27;2.47;;;13.20;28.40;;;;;;5039997;28;20476;-61
2021/04/05 12:46:05;;;;;;;2.90;2.20;;;13.30;28.60;;;;;;5040339;28;20479;-62
2021/04/05 12:48:33;;;;;;;4.77;1.90;;;13.20;28.70;;;;;;5037258;28;20460;-61
2021/04/05 12:51:07;;;;;;;5.60;2.40;;;13.20;29.10;;;;;;5047403;28;20456;-59
2021/04/05 12:53:35;;;;;;;3.47;1.97;;;13.20;29.40;;;;;;5051706;28;20433;-60
2021/04/05 12:56:03;;;;;;;3.10;2.50;;;13.20;29.70;;;;;;5047909;28;20437;-60
2021/04/05 12:58:31;;;;;;;4.00;2.20;;;13.10;29.80;;;;;;5049284;28;20471;-61
2021/04/05 13:00:57;;;;;;;2.80;2.33;;;13.20;30.40;;;;;;5056430;28;20946;-64
2021/04/05 13:03:44;;;;;;;9.53;2.57;;;13.20;30.20;;;;;;5047577;28;21357;-59
2021/04/05 13:06:21;;;;;;;4.97;2.80;;;13.40;30.50;;;;;;5042953;28;20428;-59
2021/04/05 13:09:06;;;;;;;5.20;2.60;;;13.40;30.40;;;;;;5041051;28;20456;-61
2021/04/05 13:11:37;;;;;;;8.27;2.70;;;13.50;30.20;;;;;;5047960;28;20437;-62
2021/04/05 13:14:09;;;;;;;5.30;3.00;;;13.60;30.00;;;;;;5044953;28;20434;-62
2021/04/05 13:16:46;;;;;;;6.00;2.53;;;13.60;30.00;;;;;;5043334;28;20537;-63
2021/04/05 13:19:15;;;;;;;7.40;2.87;;;13.60;30.50;;;;;;5045574;28;20461;-62
2021/04/05 13:21:43;;;;;;;6.90;3.10;;;13.60;30.60;;;;;;5047994;28;20444;-63
2021/04/05 13:24:18;;;;;;;4.90;2.70;;;13.50;30.30;;;;;;5048676;28;20988;-62
2021/04/05 13:27:05;;;;;;;8.80;3.43;;;13.20;30.70;;;;;;5048424;28;20424;-62
2021/04/05 13:29:36;;;;;;;7.60;3.30;;;13.10;31.20;;;;;;5041473;28;20429;-62